createdAt,value
2018-09-01T00:00:14.647Z,92.74
2018-09-01T00:01:14.638Z,92.55
2018-09-01T00:02:14.632Z,92.83
2018-09-01T00:03:14.627Z,92.74
2018-09-01T00:04:14.627Z,92.83
2018-09-01T00:05:14.624Z,92.83
2018-09-01T00:06:14.618Z,92.83
2018-09-01T00:07:14.608Z,93.50
2018-09-01T00:08:14.599Z,93.12
2018-09-01T00:09:14.593Z,93.88
2018-09-01T00:10:14.592Z,93.74
2018-09-01T00:11:14.598Z,93.55
2018-09-01T00:12:14.576Z,93.36
2018-09-01T00:13:14.570Z,93.74
2018-09-01T00:14:14.565Z,93.36
2018-09-01T00:15:14.560Z,93.17
2018-09-01T00:16:14.559Z,93.55
2018-09-01T00:17:14.556Z,93.55
2018-09-01T00:18:14.546Z,93.36
2018-09-01T00:19:14.544Z,93.55
2018-09-01T00:20:14.534Z,93.36
2018-09-01T00:21:14.526Z,93.36
2018-09-01T00:22:14.519Z,93.65
2018-09-01T00:23:14.513Z,94.12
2018-09-01T00:24:14.513Z,93.55
2018-09-01T00:25:14.509Z,93.55
2018-09-01T00:26:14.495Z,94.22
2018-09-01T00:27:14.490Z,93.36
2018-09-01T00:28:14.489Z,93.36
2018-09-01T00:29:14.482Z,93.55
2018-09-01T00:30:14.478Z,93.84
2018-09-01T00:31:14.473Z,94.03
2018-09-01T00:32:14.462Z,93.65
2018-09-01T00:33:14.456Z,93.93
2018-09-01T00:34:14.449Z,94.12
2018-09-01T00:35:14.446Z,93.84
2018-09-01T00:36:14.443Z,93.55
2018-09-01T00:37:14.441Z,93.84
2018-09-01T00:38:14.431Z,93.84
2018-09-01T00:39:14.426Z,94.41
2018-09-01T00:40:14.414Z,94.56
2018-09-01T00:41:14.408Z,94.60
2018-09-01T00:42:14.406Z,94.36
2018-09-01T00:43:14.401Z,94.36
2018-09-01T00:44:14.391Z,94.36
2018-09-01T00:45:14.384Z,94.46
2018-09-01T00:46:14.378Z,94.56
2018-09-01T00:47:14.374Z,95.41
2018-09-01T00:48:14.373Z,95.03
2018-09-01T00:49:14.366Z,95.51
2018-09-01T00:50:14.360Z,95.41
2018-09-01T00:51:14.354Z,95.89
2018-09-01T00:52:14.344Z,95.22
2018-09-01T00:53:14.337Z,95.61
2018-09-01T00:54:14.333Z,94.93
2018-09-01T00:55:14.324Z,95.41
2018-09-01T00:56:14.324Z,94.84
2018-09-01T00:57:14.316Z,94.36
2018-09-01T00:58:14.346Z,94.17
2018-09-01T00:59:14.304Z,94.46
2018-09-01T01:00:14.300Z,94.03
2018-09-01T01:01:14.292Z,93.31
2018-09-01T01:02:14.288Z,93.55
2018-09-01T01:03:14.282Z,93.46
2018-09-01T01:04:14.271Z,93.65
2018-09-01T01:05:14.265Z,93.60
2018-09-01T01:06:14.259Z,93.51
2018-09-01T01:07:14.253Z,93.41
2018-09-01T01:08:14.252Z,93.51
2018-09-01T01:09:14.245Z,93.60
2018-09-01T01:10:14.239Z,93.60
2018-09-01T01:11:14.236Z,93.60
2018-09-01T01:12:14.223Z,93.88
2018-09-01T01:13:14.217Z,93.60
2018-09-01T01:14:14.222Z,93.60
2018-09-01T01:15:14.208Z,93.60
2018-09-01T01:16:14.198Z,93.51
2018-09-01T01:17:14.191Z,93.60
2018-09-01T01:18:14.186Z,93.51
2018-09-01T01:19:14.180Z,93.12
2018-09-01T01:20:14.179Z,93.88
2018-09-01T01:21:14.172Z,93.41
2018-09-01T01:22:14.165Z,93.70
2018-09-01T01:23:14.159Z,93.70
2018-09-01T01:24:14.149Z,93.70
2018-09-01T01:25:14.143Z,93.51
2018-09-01T01:26:14.137Z,93.41
2018-09-01T01:27:14.131Z,93.60
2018-09-01T01:28:14.134Z,93.60
2018-09-01T01:29:14.125Z,93.60
2018-09-01T01:30:14.113Z,93.51
2018-09-01T01:31:14.106Z,93.51
2018-09-01T01:32:14.105Z,93.12
2018-09-01T01:33:14.099Z,93.31
2018-09-01T01:34:14.091Z,93.70
2018-09-01T01:35:14.085Z,93.41
2018-09-01T01:36:14.075Z,93.79
2018-09-01T01:37:14.068Z,93.88
2018-09-01T01:38:14.062Z,93.70
2018-09-01T01:39:14.056Z,93.55
2018-09-01T01:40:14.055Z,94.32
2018-09-01T01:41:14.048Z,94.56
2018-09-01T01:42:14.042Z,94.65
2018-09-01T01:43:14.037Z,94.51
2018-09-01T01:44:14.027Z,94.12
2018-09-01T01:45:14.020Z,94.32
2018-09-01T01:46:14.019Z,94.07
2018-09-01T01:47:14.012Z,94.98
2018-09-01T01:48:14.001Z,94.70
2018-09-01T01:49:13.993Z,94.70
2018-09-01T01:50:13.989Z,94.79
2018-09-01T01:51:13.981Z,94.60
2018-09-01T01:52:13.983Z,94.79
2018-09-01T01:53:13.972Z,94.51
2018-09-01T01:54:13.968Z,94.79
2018-09-01T01:55:13.960Z,94.89
2018-09-01T01:56:13.950Z,94.60
2018-09-01T01:57:13.942Z,94.89
2018-09-01T01:58:13.938Z,94.03
2018-09-01T01:59:13.930Z,94.12
2018-09-01T02:00:13.929Z,94.51
2018-09-01T02:01:13.923Z,94.32
2018-09-01T02:02:13.915Z,94.60
2018-09-01T02:03:13.906Z,95.08
2018-09-01T02:04:13.904Z,95.27
2018-09-01T02:05:13.897Z,94.98
2018-09-01T02:06:13.892Z,95.27
2018-09-01T02:07:13.883Z,95.65
2018-09-01T02:08:13.874Z,95.94
2018-09-01T02:09:13.868Z,96.03
2018-09-01T02:10:13.862Z,96.61
2018-09-01T02:11:13.854Z,96.80
2018-09-01T02:12:13.851Z,96.22
2018-09-01T02:13:13.846Z,96.61
2018-09-01T02:14:13.839Z,96.22
2018-09-01T02:15:13.832Z,96.32
2018-09-01T02:16:13.821Z,96.22
2018-09-01T02:17:13.814Z,96.80
2018-09-01T02:18:13.813Z,96.61
2018-09-01T02:19:13.806Z,96.51
2018-09-01T02:20:13.796Z,96.41
2018-09-01T02:21:13.789Z,96.89
2018-09-01T02:22:13.785Z,97.17
2018-09-01T02:23:13.776Z,96.80
2018-09-01T02:24:13.775Z,96.32
2018-09-01T02:25:13.766Z,96.13
2018-09-01T02:26:13.761Z,95.65
2018-09-01T02:27:13.757Z,95.17
2018-09-01T02:28:13.744Z,94.98
2018-09-01T02:29:13.743Z,95.27
2018-09-01T02:30:13.730Z,94.98
2018-09-01T02:31:13.731Z,95.65
2018-09-01T02:32:13.723Z,95.17
2018-09-01T02:33:13.714Z,95.65
2018-09-01T02:34:13.704Z,95.17
2018-09-01T02:35:13.700Z,95.46
2018-09-01T02:36:13.696Z,95.56
2018-09-01T02:37:13.688Z,95.08
2018-09-01T02:38:13.689Z,94.89
2018-09-01T02:39:13.676Z,95.27
2018-09-01T02:40:13.665Z,94.98
2018-09-01T02:41:13.658Z,95.08
2018-09-01T02:42:13.652Z,95.08
2018-09-01T02:43:13.645Z,94.84
2018-09-01T02:44:13.644Z,95.32
2018-09-01T02:45:13.640Z,95.32
2018-09-01T02:46:13.629Z,95.51
2018-09-01T02:47:13.622Z,95.32
2018-09-01T02:48:13.612Z,95.17
2018-09-01T02:49:13.605Z,94.89
2018-09-01T02:50:13.605Z,94.98
2018-09-01T02:51:13.596Z,95.22
2018-09-01T02:52:13.586Z,95.32
2018-09-01T02:53:13.578Z,95.41
2018-09-01T02:54:13.573Z,95.41
2018-09-01T02:55:13.566Z,95.22
2018-09-01T02:56:13.565Z,95.32
2018-09-01T02:57:13.557Z,94.93
2018-09-01T02:58:13.552Z,95.03
2018-09-01T02:59:13.544Z,94.84
2018-09-01T03:00:13.534Z,95.12
2018-09-01T03:01:13.530Z,94.84
2018-09-01T03:02:13.518Z,95.22
2018-09-01T03:03:13.511Z,95.03
2018-09-01T03:04:13.510Z,95.12
2018-09-01T03:05:13.506Z,94.93
2018-09-01T03:06:13.491Z,94.84
2018-09-01T03:07:13.486Z,95.12
2018-09-01T03:08:13.485Z,94.93
2018-09-01T03:09:13.476Z,94.93
2018-09-01T03:10:13.480Z,94.84
2018-09-01T03:11:13.463Z,95.32
2018-09-01T03:12:13.452Z,94.93
2018-09-01T03:13:13.448Z,95.03
2018-09-01T03:14:13.438Z,94.84
2018-09-01T03:15:13.431Z,95.12
2018-09-01T03:16:13.430Z,94.93
2018-09-01T03:17:13.422Z,95.41
2018-09-01T03:18:13.415Z,94.93
2018-09-01T03:19:13.412Z,95.61
2018-09-01T03:20:13.398Z,95.12
2018-09-01T03:21:13.392Z,95.61
2018-09-01T03:22:13.388Z,96.17
2018-09-01T03:23:13.381Z,95.79
2018-09-01T03:24:13.371Z,96.56
2018-09-01T03:25:13.363Z,96.65
2018-09-01T03:26:13.356Z,96.51
2018-09-01T03:27:13.349Z,96.46
2018-09-01T03:28:13.348Z,96.75
2018-09-01T03:29:13.341Z,96.65
2018-09-01T03:30:13.335Z,96.75
2018-09-01T03:31:13.327Z,96.65
2018-09-01T03:32:13.315Z,96.36
2018-09-01T03:33:13.315Z,96.27
2018-09-01T03:34:13.311Z,96.27
2018-09-01T03:35:13.295Z,96.65
2018-09-01T03:36:13.293Z,96.94
2018-09-01T03:37:13.285Z,96.36
2018-09-01T03:38:13.274Z,97.41
2018-09-01T03:39:13.266Z,96.94
2018-09-01T03:40:13.264Z,97.41
2018-09-01T03:41:13.258Z,97.41
2018-09-01T03:42:13.250Z,97.70
2018-09-01T03:43:13.243Z,97.41
2018-09-01T03:44:13.236Z,97.70
2018-09-01T03:45:13.225Z,97.61
2018-09-01T03:46:13.219Z,97.80
2018-09-01T03:47:13.212Z,97.22
2018-09-01T03:48:13.210Z,97.41
2018-09-01T03:49:13.202Z,96.75
2018-09-01T03:50:13.195Z,96.56
2018-09-01T03:51:13.192Z,97.03
2018-09-01T03:52:13.177Z,96.94
2018-09-01T03:53:13.171Z,96.84
2018-09-01T03:54:13.168Z,97.32
2018-09-01T03:55:13.161Z,97.51
2018-09-01T03:56:13.151Z,97.13
2018-09-01T03:57:13.142Z,97.32
2018-09-01T03:58:13.134Z,97.32
2018-09-01T03:59:13.128Z,97.70
2018-09-01T04:00:13.126Z,97.70
2018-09-01T04:01:13.119Z,97.80
2018-09-01T04:02:13.112Z,97.89
2018-09-01T04:03:13.105Z,97.80
2018-09-01T04:04:13.093Z,97.70
2018-09-01T04:05:13.117Z,97.22
2018-09-01T04:06:13.079Z,97.41
2018-09-01T04:07:13.072Z,97.41
2018-09-01T04:08:13.071Z,96.84
2018-09-01T04:09:13.071Z,96.89
2018-09-01T04:10:13.056Z,96.84
2018-09-01T04:11:13.046Z,97.03
2018-09-01T04:12:13.047Z,96.84
2018-09-01T04:13:13.035Z,96.94
2018-09-01T04:14:13.027Z,97.36
2018-09-01T04:15:13.023Z,97.41
2018-09-01T04:16:13.013Z,97.61
2018-09-01T04:17:13.002Z,97.22
2018-09-01T04:18:12.995Z,97.56
2018-09-01T04:19:12.988Z,96.94
2018-09-01T04:20:12.986Z,96.70
2018-09-01T04:21:12.978Z,96.89
2018-09-01T04:22:12.973Z,96.98
2018-09-01T04:23:12.966Z,96.36
2018-09-01T04:24:12.956Z,96.46
2018-09-01T04:25:12.946Z,96.32
2018-09-01T04:26:12.945Z,96.27
2018-09-01T04:27:12.941Z,96.32
2018-09-01T04:28:12.926Z,96.32
2018-09-01T04:29:12.918Z,96.41
2018-09-01T04:30:12.912Z,96.41
2018-09-01T04:31:12.903Z,96.32
2018-09-01T04:32:12.903Z,96.80
2018-09-01T04:33:12.895Z,96.80
2018-09-01T04:34:12.890Z,96.70
2018-09-01T04:35:12.882Z,96.12
2018-09-01T04:36:12.869Z,96.41
2018-09-01T04:37:12.861Z,96.32
2018-09-01T04:38:12.856Z,96.41
2018-09-01T04:39:12.847Z,96.70
2018-09-01T04:40:12.845Z,96.51
2018-09-01T04:41:12.837Z,96.41
2018-09-01T04:42:12.826Z,96.60
2018-09-01T04:43:12.819Z,95.56
2018-09-01T04:44:12.817Z,96.12
2018-09-01T04:45:12.813Z,96.80
2018-09-01T04:46:12.803Z,96.80
2018-09-01T04:47:12.865Z,96.60
2018-09-01T04:48:12.784Z,96.51
2018-09-01T04:49:12.777Z,96.70
2018-09-01T04:50:12.770Z,96.22
2018-09-01T04:51:12.763Z,96.51
2018-09-01T04:52:12.762Z,96.12
2018-09-01T04:53:12.753Z,96.12
2018-09-01T04:54:12.745Z,96.12
2018-09-01T04:55:12.739Z,96.41
2018-09-01T04:56:12.727Z,96.12
2018-09-01T04:57:12.721Z,96.41
2018-09-01T04:58:12.721Z,96.41
2018-09-01T04:59:12.715Z,96.60
2018-09-01T05:00:12.701Z,96.51
2018-09-01T05:01:12.862Z,96.12
2018-09-01T05:02:12.687Z,96.03
2018-09-01T05:03:12.682Z,95.65
2018-09-01T05:04:12.676Z,95.56
2018-09-01T05:05:12.668Z,95.94
2018-09-01T05:06:12.661Z,95.84
2018-09-01T05:07:12.656Z,95.94
2018-09-01T05:08:12.654Z,96.03
2018-09-01T05:09:12.637Z,95.75
2018-09-01T05:10:12.627Z,95.65
2018-09-01T05:11:12.624Z,95.56
2018-09-01T05:12:12.618Z,95.56
2018-09-01T05:13:12.611Z,95.94
2018-09-01T05:14:12.600Z,95.46
2018-09-01T05:15:12.599Z,95.98
2018-09-01T05:16:12.591Z,95.89
2018-09-01T05:17:12.583Z,95.27
2018-09-01T05:18:12.576Z,95.51
2018-09-01T05:19:12.570Z,95.41
2018-09-01T05:20:12.557Z,95.03
2018-09-01T05:21:12.551Z,95.22
2018-09-01T05:22:12.544Z,94.74
2018-09-01T05:23:12.538Z,94.93
2018-09-01T05:24:12.536Z,94.89
2018-09-01T05:25:12.529Z,94.03
2018-09-01T05:26:12.520Z,94.32
2018-09-01T05:27:12.515Z,94.46
2018-09-01T05:28:12.504Z,94.12
2018-09-01T05:29:12.498Z,93.02
2018-09-01T05:30:12.494Z,92.59
2018-09-01T05:31:12.488Z,91.20
2018-09-01T05:32:12.477Z,89.29
2018-09-01T05:33:12.471Z,87.81
2018-09-01T05:34:12.465Z,86.90
2018-09-01T05:35:12.459Z,85.60
2018-09-01T05:36:12.459Z,83.68
2018-09-01T05:37:12.452Z,83.05
2018-09-01T05:38:12.446Z,80.89
2018-09-01T05:39:12.442Z,80.35
2018-09-01T05:40:12.431Z,79.24
2018-09-01T05:41:12.426Z,77.80
2018-09-01T05:42:12.422Z,76.79
2018-09-01T05:43:12.418Z,75.48
2018-09-01T05:44:12.418Z,73.56
2018-09-01T05:45:12.415Z,73.41
2018-09-01T05:46:12.408Z,72.16
2018-09-01T05:47:12.402Z,71.33
2018-09-01T05:48:12.407Z,70.40
2018-09-01T05:49:12.399Z,69.44
2018-09-01T05:50:12.396Z,68.13
2018-09-01T05:51:12.391Z,67.97
2018-09-01T05:52:12.385Z,66.81
2018-09-01T05:53:12.382Z,66.36
2018-09-01T05:54:12.379Z,65.24
2018-09-01T05:55:12.377Z,64.66
2018-09-01T05:56:12.385Z,63.15
2018-09-01T05:57:12.378Z,62.38
2018-09-01T05:58:12.377Z,62.57
2018-09-01T05:59:12.376Z,61.35
2018-09-01T06:00:12.371Z,60.68
2018-09-01T06:01:12.367Z,60.03
2018-09-01T06:02:12.372Z,59.83
2018-09-01T06:03:12.372Z,59.83
2018-09-01T06:04:12.365Z,59.83
2018-09-01T06:05:12.365Z,59.48
2018-09-01T06:06:12.486Z,58.90
2018-09-01T06:07:12.365Z,58.51
2018-09-01T06:08:12.370Z,57.77
2018-09-01T06:09:12.368Z,58.25
2018-09-01T06:10:12.373Z,57.60
2018-09-01T06:11:12.370Z,57.12
2018-09-01T06:12:12.366Z,56.95
2018-09-01T06:13:12.367Z,56.21
2018-09-01T06:14:12.366Z,56.11
2018-09-01T06:15:12.368Z,55.76
2018-09-01T06:16:12.374Z,54.79
2018-09-01T06:17:12.375Z,54.79
2018-09-01T06:18:12.372Z,54.59
2018-09-01T06:19:12.396Z,54.52
2018-09-01T06:20:12.379Z,54.33
2018-09-01T06:21:12.379Z,54.13
2018-09-01T06:22:12.381Z,53.94
2018-09-01T06:23:12.383Z,53.65
2018-09-01T06:24:12.383Z,53.17
2018-09-01T06:25:12.383Z,53.26
2018-09-01T06:26:12.385Z,52.85
2018-09-01T06:27:12.388Z,54.37
2018-09-01T06:28:12.395Z,54.47
2018-09-01T06:29:12.396Z,54.66
2018-09-01T06:30:12.471Z,54.75
2018-09-01T06:31:12.403Z,55.05
2018-09-01T06:32:12.402Z,55.05
2018-09-01T06:33:12.404Z,54.88
2018-09-01T06:34:12.411Z,54.79
2018-09-01T06:35:12.414Z,54.69
2018-09-01T06:36:12.412Z,54.33
2018-09-01T06:37:12.414Z,54.03
2018-09-01T06:38:12.417Z,53.67
2018-09-01T06:39:12.421Z,52.73
2018-09-01T06:40:12.430Z,52.83
2018-09-01T06:41:12.432Z,52.08
2018-09-01T06:42:12.436Z,51.98
2018-09-01T06:43:12.480Z,51.43
2018-09-01T06:44:12.438Z,51.35
2018-09-01T06:45:12.444Z,51.06
2018-09-01T06:46:12.450Z,51.16
2018-09-01T06:47:12.450Z,50.60
2018-09-01T06:48:12.459Z,50.24
2018-09-01T06:49:12.463Z,49.27
2018-09-01T06:50:12.463Z,48.75
2018-09-01T06:51:12.467Z,48.97
2018-09-01T06:52:12.477Z,49.05
2018-09-01T06:53:12.480Z,49.24
2018-09-01T06:54:12.486Z,49.24
2018-09-01T06:55:12.491Z,48.75
2018-09-01T06:56:12.491Z,48.97
2018-09-01T06:57:12.495Z,48.41
2018-09-01T06:58:12.500Z,48.15
2018-09-01T06:59:12.505Z,47.66
2018-09-01T07:00:12.517Z,47.00
2018-09-01T07:01:12.520Z,46.73
2018-09-01T07:02:12.525Z,46.27
2018-09-01T07:03:12.537Z,45.59
2018-09-01T07:04:12.531Z,45.22
2018-09-01T07:05:12.536Z,44.62
2018-09-01T07:06:12.548Z,44.79
2018-09-01T07:07:12.561Z,45.23
2018-09-01T07:08:12.554Z,46.08
2018-09-01T07:09:12.560Z,46.94
2018-09-01T07:10:12.566Z,47.83
2018-09-01T07:11:12.572Z,48.03
2018-09-01T07:12:12.584Z,48.03
2018-09-01T07:13:12.589Z,48.05
2018-09-01T07:14:12.596Z,47.10
2018-09-01T07:15:12.603Z,46.93
2018-09-01T07:16:12.603Z,47.20
2018-09-01T07:17:12.610Z,46.91
2018-09-01T07:18:12.616Z,46.73
2018-09-01T07:19:12.623Z,46.51
2018-09-01T07:20:12.635Z,46.25
2018-09-01T07:21:12.641Z,46.47
2018-09-01T07:22:12.642Z,46.23
2018-09-01T07:23:12.649Z,46.71
2018-09-01T07:24:12.661Z,46.78
2018-09-01T07:25:12.669Z,47.20
2018-09-01T07:26:12.676Z,47.34
2018-09-01T07:27:12.684Z,46.49
2018-09-01T07:28:12.685Z,45.22
2018-09-01T07:29:12.691Z,44.93
2018-09-01T07:30:12.790Z,45.25
2018-09-01T07:31:13.041Z,45.32
2018-09-01T07:32:12.722Z,44.09
2018-09-01T07:33:12.726Z,43.73
2018-09-01T07:34:12.733Z,44.24
2018-09-01T07:35:12.741Z,43.18
2018-09-01T07:36:12.745Z,42.30
2018-09-01T07:37:12.758Z,41.91
2018-09-01T07:38:12.764Z,41.72
2018-09-01T07:39:12.771Z,41.46
2018-09-01T07:40:12.778Z,41.03
2018-09-01T07:41:12.784Z,41.23
2018-09-01T07:42:12.793Z,40.95
2018-09-01T07:43:12.802Z,40.27
2018-09-01T07:44:12.817Z,40.14
2018-09-01T07:45:12.824Z,40.82
2018-09-01T07:46:12.832Z,40.41
2018-09-01T07:47:12.846Z,41.38
2018-09-01T07:48:12.845Z,41.44
2018-09-01T07:49:12.854Z,41.95
2018-09-01T07:50:12.863Z,41.97
2018-09-01T07:51:12.872Z,42.40
2018-09-01T07:52:12.885Z,43.13
2018-09-01T07:53:12.894Z,44.20
2018-09-01T07:54:12.898Z,44.49
2018-09-01T07:55:12.907Z,44.05
2018-09-01T07:56:13.111Z,44.20
2018-09-01T07:57:12.930Z,43.76
2018-09-01T07:58:12.937Z,43.51
2018-09-01T07:59:12.951Z,42.68
2018-09-01T08:00:12.953Z,42.16
2018-09-01T08:01:12.961Z,41.41
2018-09-01T08:02:12.971Z,40.35
2018-09-01T08:03:12.980Z,39.98
2018-09-01T08:04:12.993Z,40.31
2018-09-01T08:05:13.004Z,42.28
2018-09-01T08:06:13.014Z,42.69
2018-09-01T08:07:13.023Z,42.12
2018-09-01T08:08:13.031Z,42.26
2018-09-01T08:09:13.036Z,40.72
2018-09-01T08:10:13.103Z,40.16
2018-09-01T08:11:13.062Z,40.06
2018-09-01T08:12:13.069Z,40.16
2018-09-01T08:13:13.076Z,39.90
2018-09-01T08:14:13.250Z,38.75
2018-09-01T08:15:13.096Z,38.57
2018-09-01T08:16:13.111Z,37.77
2018-09-01T08:17:13.119Z,37.27
2018-09-01T08:18:13.131Z,37.26
2018-09-01T08:19:13.141Z,37.61
2018-09-01T08:20:13.147Z,36.14
2018-09-01T08:21:13.157Z,36.35
2018-09-01T08:22:13.168Z,35.88
2018-09-01T08:23:13.179Z,35.31
2018-09-01T08:24:13.196Z,35.02
2018-09-01T08:25:13.205Z,34.26
2018-09-01T08:26:13.298Z,33.65
2018-09-01T08:27:13.225Z,33.31
2018-09-01T08:28:13.240Z,33.97
2018-09-01T08:29:13.252Z,34.54
2018-09-01T08:30:13.263Z,34.99
2018-09-01T08:31:13.275Z,37.12
2018-09-01T08:32:13.286Z,38.81
2018-09-01T08:33:13.293Z,42.48
2018-09-01T08:34:13.305Z,42.69
2018-09-01T08:35:13.316Z,45.29
2018-09-01T08:36:13.334Z,42.77
2018-09-01T08:37:13.345Z,43.36
2018-09-01T08:38:13.358Z,43.95
2018-09-01T08:39:13.368Z,43.85
2018-09-01T08:40:13.426Z,45.12
2018-09-01T08:41:13.388Z,43.59
2018-09-01T08:42:13.405Z,40.47
2018-09-01T08:43:13.416Z,40.97
2018-09-01T08:44:13.424Z,41.35
2018-09-01T08:45:13.473Z,40.95
2018-09-01T08:46:13.447Z,41.52
2018-09-01T08:47:13.460Z,40.14
2018-09-01T08:48:13.475Z,37.57
2018-09-01T08:49:13.486Z,38.71
2018-09-01T08:50:13.503Z,37.85
2018-09-01T08:51:13.511Z,36.30
2018-09-01T08:52:13.519Z,36.22
2018-09-01T08:53:13.530Z,36.59
2018-09-01T08:54:13.545Z,35.79
2018-09-01T08:55:13.556Z,35.38
2018-09-01T08:56:13.573Z,34.99
2018-09-01T08:57:13.589Z,37.24
2018-09-01T08:58:13.593Z,38.55
2018-09-01T08:59:13.609Z,38.57
2018-09-01T09:00:13.622Z,37.93
2018-09-01T09:01:13.634Z,37.45
2018-09-01T09:02:13.645Z,36.63
2018-09-01T09:03:13.657Z,35.61
2018-09-01T09:04:13.669Z,38.12
2018-09-01T09:05:13.678Z,38.65
2018-09-01T09:06:13.690Z,37.71
2018-09-01T09:07:13.709Z,34.78
2018-09-01T09:08:13.719Z,34.44
2018-09-01T09:09:13.732Z,35.68
2018-09-01T09:10:13.746Z,35.50
2018-09-01T09:11:13.759Z,34.84
2018-09-01T09:12:13.767Z,33.58
2018-09-01T09:13:13.784Z,35.44
2018-09-01T09:14:13.796Z,35.99
2018-09-01T09:15:13.810Z,35.30
2018-09-01T09:16:13.818Z,35.81
2018-09-01T09:17:13.830Z,33.77
2018-09-01T09:18:13.844Z,34.38
2018-09-01T09:19:13.857Z,34.41
2018-09-01T09:20:13.874Z,34.80
2018-09-01T09:21:13.885Z,36.36
2018-09-01T09:22:13.899Z,35.85
2018-09-01T09:23:13.913Z,34.78
2018-09-01T09:24:13.922Z,35.11
2018-09-01T09:25:13.936Z,34.75
2018-09-01T09:26:13.947Z,34.86
2018-09-01T09:27:13.961Z,34.99
2018-09-01T09:28:13.981Z,35.40
2018-09-01T09:29:13.990Z,36.43
2018-09-01T09:30:13.998Z,36.30
2018-09-01T09:31:14.016Z,35.55
2018-09-01T09:32:14.030Z,33.00
2018-09-01T09:33:14.043Z,31.70
2018-09-01T09:34:14.056Z,31.88
2018-09-01T09:35:14.068Z,32.56
2018-09-01T09:36:14.079Z,33.04
2018-09-01T09:37:14.089Z,32.95
2018-09-01T09:38:14.103Z,32.61
2018-09-01T09:39:14.116Z,31.54
2018-09-01T09:40:14.133Z,31.99
2018-09-01T09:41:14.146Z,31.78
2018-09-01T09:42:14.162Z,32.78
2018-09-01T09:43:14.174Z,32.37
2018-09-01T09:44:14.182Z,32.50
2018-09-01T09:45:14.193Z,33.23
2018-09-01T09:46:14.212Z,32.56
2018-09-01T09:47:14.224Z,32.46
2018-09-01T09:48:14.234Z,32.92
2018-09-01T09:49:14.244Z,34.05
2018-09-01T09:50:14.258Z,34.24
2018-09-01T09:51:14.271Z,34.00
2018-09-01T09:52:14.295Z,33.10
2018-09-01T09:53:14.299Z,33.17
2018-09-01T09:54:14.314Z,33.97
2018-09-01T09:55:14.329Z,32.90
2018-09-01T09:56:14.342Z,32.06
2018-09-01T09:57:14.348Z,31.97
2018-09-01T09:58:14.421Z,31.07
2018-09-01T09:59:14.373Z,30.98
2018-09-01T10:00:14.392Z,30.83
2018-09-01T10:01:14.403Z,31.01
2018-09-01T10:02:14.412Z,30.72
2018-09-01T10:03:14.459Z,32.24
2018-09-01T10:04:14.443Z,31.87
2018-09-01T10:05:14.506Z,31.96
2018-09-01T10:06:14.471Z,31.35
2018-09-01T10:07:14.484Z,32.89
2018-09-01T10:08:14.494Z,33.07
2018-09-01T10:09:14.503Z,33.95
2018-09-01T10:10:14.517Z,33.36
2018-09-01T10:11:14.532Z,33.38
2018-09-01T10:12:14.552Z,32.91
2018-09-01T10:13:14.559Z,32.89
2018-09-01T10:14:14.571Z,32.86
2018-09-01T10:15:14.584Z,34.01
2018-09-01T10:16:14.592Z,34.14
2018-09-01T10:17:14.605Z,34.61
2018-09-01T10:18:14.622Z,35.04
2018-09-01T10:19:14.633Z,34.00
2018-09-01T10:20:14.798Z,33.07
2018-09-01T10:21:14.655Z,32.19
2018-09-01T10:22:14.666Z,31.96
2018-09-01T10:23:14.680Z,31.70
2018-09-01T10:24:14.697Z,32.18
2018-09-01T10:25:14.708Z,33.28
2018-09-01T10:26:14.725Z,33.83
2018-09-01T10:27:14.733Z,34.98
2018-09-01T10:28:14.741Z,35.80
2018-09-01T10:29:14.750Z,36.80
2018-09-01T10:30:14.762Z,36.25
2018-09-01T10:31:14.773Z,34.63
2018-09-01T10:32:14.788Z,33.72
2018-09-01T10:33:14.799Z,33.78
2018-09-01T10:34:14.805Z,34.88
2018-09-01T10:35:14.823Z,35.28
2018-09-01T10:36:14.832Z,34.69
2018-09-01T10:37:14.842Z,34.26
2018-09-01T10:38:14.857Z,32.62
2018-09-01T10:39:14.867Z,32.31
2018-09-01T10:40:14.872Z,32.11
2018-09-01T10:41:14.881Z,32.63
2018-09-01T10:42:14.893Z,33.36
2018-09-01T10:43:14.905Z,34.32
2018-09-01T10:44:14.960Z,35.23
2018-09-01T10:45:14.931Z,35.94
2018-09-01T10:46:14.941Z,35.86
2018-09-01T10:47:14.959Z,35.83
2018-09-01T10:48:14.960Z,37.34
2018-09-01T10:49:14.969Z,38.40
2018-09-01T10:50:14.984Z,38.40
2018-09-01T10:51:14.998Z,39.14
2018-09-01T10:52:15.002Z,40.01
2018-09-01T10:53:15.010Z,38.34
2018-09-01T10:54:15.019Z,39.78
2018-09-01T10:55:15.028Z,41.33
2018-09-01T10:56:15.043Z,41.99
2018-09-01T10:57:15.051Z,42.48
2018-09-01T10:58:15.059Z,43.13
2018-09-01T10:59:15.114Z,43.16
2018-09-01T11:00:15.071Z,42.75
2018-09-01T11:01:15.077Z,43.74
2018-09-01T11:02:15.084Z,43.74
2018-09-01T11:03:15.144Z,43.84
2018-09-01T11:04:15.105Z,44.51
2018-09-01T11:05:15.205Z,44.13
2018-09-01T11:06:15.112Z,44.23
2018-09-01T11:07:15.119Z,42.38
2018-09-01T11:08:15.133Z,42.07
2018-09-01T11:09:15.135Z,43.82
2018-09-01T11:10:15.140Z,42.48
2018-09-01T11:11:15.148Z,41.86
2018-09-01T11:12:15.147Z,41.01
2018-09-01T11:13:15.152Z,40.41
2018-09-01T11:14:15.158Z,41.16
2018-09-01T11:15:15.164Z,41.99
2018-09-01T11:16:15.174Z,42.46
2018-09-01T11:17:15.181Z,41.30
2018-09-01T11:18:15.186Z,40.50
2018-09-01T11:19:15.192Z,40.67
2018-09-01T11:20:15.374Z,41.14
2018-09-01T11:21:15.197Z,42.30
2018-09-01T11:22:15.208Z,43.37
2018-09-01T11:23:15.213Z,43.96
2018-09-01T11:24:15.219Z,44.54
2018-09-01T11:25:15.218Z,44.78
2018-09-01T11:26:15.221Z,43.26
2018-09-01T11:27:15.238Z,41.99
2018-09-01T11:28:15.381Z,42.54
2018-09-01T11:29:15.239Z,42.44
2018-09-01T11:30:15.243Z,41.47
2018-09-01T11:31:15.248Z,41.64
2018-09-01T11:32:15.250Z,41.35
2018-09-01T11:33:15.278Z,40.63
2018-09-01T11:34:15.257Z,41.19
2018-09-01T11:35:15.261Z,41.87
2018-09-01T11:36:15.270Z,42.74
2018-09-01T11:37:15.272Z,43.13
2018-09-01T11:38:15.277Z,43.61
2018-09-01T11:39:15.276Z,44.29
2018-09-01T11:40:15.354Z,43.90
2018-09-01T11:41:15.288Z,43.30
2018-09-01T11:42:15.291Z,43.37
2018-09-01T11:43:15.307Z,45.14
2018-09-01T11:44:15.294Z,46.03
2018-09-01T11:45:15.301Z,45.35
2018-09-01T11:46:15.300Z,45.93
2018-09-01T11:47:15.303Z,46.25
2018-09-01T11:48:15.313Z,44.70
2018-09-01T11:49:15.313Z,42.83
2018-09-01T11:50:15.316Z,41.83
2018-09-01T11:51:15.320Z,43.49
2018-09-01T11:52:15.317Z,43.90
2018-09-01T11:53:15.537Z,42.74
2018-09-01T11:54:15.329Z,42.16
2018-09-01T11:55:15.334Z,42.93
2018-09-01T11:56:15.329Z,43.54
2018-09-01T11:57:15.331Z,42.57
2018-09-01T11:58:15.333Z,41.89
2018-09-01T11:59:15.335Z,41.87
2018-09-01T12:00:15.344Z,43.15
2018-09-01T12:01:15.343Z,42.76
2018-09-01T12:02:15.385Z,42.97
2018-09-01T12:03:15.350Z,43.58
2018-09-01T12:04:15.347Z,43.38
2018-09-01T12:05:15.349Z,42.71
2018-09-01T12:06:15.352Z,42.80
2018-09-01T12:07:15.354Z,42.30
2018-09-01T12:08:15.362Z,41.50
2018-09-01T12:09:15.423Z,42.47
2018-09-01T12:10:15.362Z,43.24
2018-09-01T12:11:15.365Z,43.54
2018-09-01T12:12:15.373Z,43.44
2018-09-01T12:13:15.376Z,43.15
2018-09-01T12:14:15.381Z,42.47
2018-09-01T12:15:15.381Z,42.45
2018-09-01T12:16:15.377Z,41.56
2018-09-01T12:17:15.381Z,40.88
2018-09-01T12:18:15.383Z,41.85
2018-09-01T12:19:15.415Z,43.23
2018-09-01T12:20:15.392Z,43.15
2018-09-01T12:21:15.394Z,44.04
2018-09-01T12:22:15.407Z,44.43
2018-09-01T12:23:15.399Z,43.17
2018-09-01T12:24:15.396Z,43.46
2018-09-01T12:25:15.397Z,43.29
2018-09-01T12:26:15.404Z,43.19
2018-09-01T12:27:15.406Z,43.38
2018-09-01T12:28:15.444Z,42.51
2018-09-01T12:29:15.406Z,43.19
2018-09-01T12:30:15.409Z,42.24
2018-09-01T12:31:15.411Z,40.77
2018-09-01T12:32:15.419Z,41.16
2018-09-01T12:33:15.422Z,42.22
2018-09-01T12:34:15.424Z,42.51
2018-09-01T12:35:15.453Z,42.71
2018-09-01T12:36:15.436Z,42.41
2018-09-01T12:37:15.427Z,42.49
2018-09-01T12:38:15.429Z,42.30
2018-09-01T12:39:15.431Z,42.86
2018-09-01T12:40:15.439Z,42.76
2018-09-01T12:41:15.441Z,43.24
2018-09-01T12:42:15.438Z,42.74
2018-09-01T12:43:15.442Z,43.23
2018-09-01T12:44:15.452Z,43.20
2018-09-01T12:45:15.457Z,43.40
2018-09-01T12:46:15.454Z,44.87
2018-09-01T12:47:15.456Z,44.38
2018-09-01T12:48:15.455Z,44.87
2018-09-01T12:49:15.455Z,44.96
2018-09-01T12:50:15.458Z,45.16
2018-09-01T12:51:15.461Z,44.96
2018-09-01T12:52:15.467Z,44.38